Keewatin, Canada
Current Conditions -  °F | °C
As of 5:00 PM on Thursday 18 Dec 2014 (Local Time) from CYQK Reporting Station
Broken Clouds Broken Clouds  
Wind Chill:   Ceiling: 23000
Heat Index: 16°   Visibility: 15mi
Dew Point:   Wind: 7mph
Humidity: 73%   Direction: 160°SSE
Pressure: 30.19"   Gusts: NA
Location:  49.76°N, 94.56°W
Report Text: CYQK 182300Z 16006KT 15SM FEW150 BKN230 M09/M13 A3019 RMK AC1CI5 SLP259
Loading
Personal Weather Stations






























Interactive Weather Map New forecast layout! Learn more

10-Day Weather Forecast

Advertisements
Track Severe Weather on mobile